sensor_id;sensor_type;location;lat;lon;timestamp;pressure;altitude;pressure_sealevel;temperature;humidity
60228;BME280;46091;46.512;6.626;2023-07-31T00:00:00;97103.31;;;23.76;39.85
60228;BME280;46091;46.512;6.626;2023-07-31T00:02:03;97094.66;;;23.74;39.42
60228;BME280;46091;46.512;6.626;2023-07-31T00:04:06;97095.47;;;23.74;39.71
60228;BME280;46091;46.512;6.626;2023-07-31T00:06:09;97090.63;;;23.76;39.94
60228;BME280;46091;46.512;6.626;2023-07-31T00:08:12;97094.94;;;23.77;39.69
60228;BME280;46091;46.512;6.626;2023-07-31T00:10:16;97100.09;;;23.79;39.58
60228;BME280;46091;46.512;6.626;2023-07-31T00:12:19;97099.81;;;23.80;39.84
60228;BME280;46091;46.512;6.626;2023-07-31T00:14:22;97101.44;;;23.81;39.83
60228;BME280;46091;46.512;6.626;2023-07-31T00:16:25;97099.53;;;23.82;39.53
60228;BME280;46091;46.512;6.626;2023-07-31T00:18:28;97102.25;;;23.82;39.45
60228;BME280;46091;46.512;6.626;2023-07-31T00:20:31;97108.44;;;23.83;39.97
60228;BME280;46091;46.512;6.626;2023-07-31T00:22:35;97103.03;;;23.83;39.76
60228;BME280;46091;46.512;6.626;2023-07-31T00:24:39;97109.25;;;23.83;39.97
60228;BME280;46091;46.512;6.626;2023-07-31T00:26:43;97108.44;;;23.83;39.96
60228;BME280;46091;46.512;6.626;2023-07-31T00:28:46;97096.03;;;23.81;39.54
60228;BME280;46091;46.512;6.626;2023-07-31T00:30:48;97087.13;;;23.81;40.06
60228;BME280;46091;46.512;6.626;2023-07-31T00:32:51;97093.31;;;23.81;39.79
60228;BME280;46091;46.512;6.626;2023-07-31T00:34:54;97093.31;;;23.81;39.63
60228;BME280;46091;46.512;6.626;2023-07-31T00:36:57;97089.53;;;23.83;39.50
60228;BME280;46091;46.512;6.626;2023-07-31T00:39:00;97085.22;;;23.81;40.08
60228;BME280;46091;46.512;6.626;2023-07-31T00:41:03;97077.66;;;23.84;39.88
60228;BME280;46091;46.512;6.626;2023-07-31T00:43:07;97083.06;;;23.84;39.85
60228;BME280;46091;46.512;6.626;2023-07-31T00:45:10;97072.28;;;23.84;39.64
60228;BME280;46091;46.512;6.626;2023-07-31T00:47:13;97086.56;;;23.84;39.91
60228;BME280;46091;46.512;6.626;2023-07-31T00:49:15;97076.06;;;23.83;39.71
60228;BME280;46091;46.512;6.626;2023-07-31T00:51:18;97077.66;;;23.84;39.88
60228;BME280;46091;46.512;6.626;2023-07-31T00:53:21;97068.75;;;23.83;40.13
60228;BME280;46091;46.512;6.626;2023-07-31T00:55:24;97065.25;;;23.83;40.00
60228;BME280;46091;46.512;6.626;2023-07-31T00:57:27;97065.53;;;23.81;39.90
60228;BME280;46091;46.512;6.626;2023-07-31T00:59:31;97063.63;;;23.81;39.66
60228;BME280;46091;46.512;6.626;2023-07-31T01:01:33;97056.63;;;23.80;39.82
60228;BME280;46091;46.512;6.626;2023-07-31T01:03:36;97065.00;;;23.79;39.90
60228;BME280;46091;46.512;6.626;2023-07-31T01:05:49;97054.19;;;23.79;39.78
60228;BME280;46091;46.512;6.626;2023-07-31T01:08:04;97063.34;;;23.78;39.77
60228;BME280;46091;46.512;6.626;2023-07-31T01:10:11;97054.44;;;23.77;40.25
60228;BME280;46091;46.512;6.626;2023-07-31T01:12:20;97053.09;;;23.75;39.90
60228;BME280;46091;46.512;6.626;2023-07-31T01:14:23;97054.72;;;23.76;40.22
60228;BME280;46091;46.512;6.626;2023-07-31T01:16:27;97051.22;;;23.75;39.83
60228;BME280;46091;46.512;6.626;2023-07-31T01:18:31;97063.91;;;23.75;39.90
60228;BME280;46091;46.512;6.626;2023-07-31T01:20:35;97057.16;;;23.72;40.27
60228;BME280;46091;46.512;6.626;2023-07-31T01:22:58;97050.94;;;23.72;40.20
60228;BME280;46091;46.512;6.626;2023-07-31T01:25:15;97048.53;;;23.70;40.25
60228;BME280;46091;46.512;6.626;2023-07-31T01:27:28;97056.63;;;23.70;40.22
60228;BME280;46091;46.512;6.626;2023-07-31T01:29:38;97053.13;;;23.70;40.45
60228;BME280;46091;46.512;6.626;2023-07-31T01:31:41;97050.41;;;23.70;40.41
60228;BME280;46091;46.512;6.626;2023-07-31T01:33:50;97052.84;;;23.71;40.18
60228;BME280;46091;46.512;6.626;2023-07-31T01:35:56;97044.75;;;23.71;40.48
60228;BME280;46091;46.512;6.626;2023-07-31T01:37:59;97041.22;;;23.71;40.44
60228;BME280;46091;46.512;6.626;2023-07-31T01:40:04;97045.56;;;23.72;40.02
60228;BME280;46091;46.512;6.626;2023-07-31T01:42:08;97034.22;;;23.70;40.19
60228;BME280;46091;46.512;6.626;2023-07-31T01:44:12;97035.31;;;23.69;40.56
60228;BME280;46091;46.512;6.626;2023-07-31T01:46:15;97039.31;;;23.66;40.50
60228;BME280;46091;46.512;6.626;2023-07-31T01:48:18;97030.69;;;23.64;40.43
60228;BME280;46091;46.512;6.626;2023-07-31T01:50:20;97030.97;;;23.63;40.62
60228;BME280;46091;46.512;6.626;2023-07-31T01:52:23;97029.09;;;23.63;40.66
60228;BME280;46091;46.512;6.626;2023-07-31T01:54:26;97025.31;;;23.64;40.22
60228;BME280;46091;46.512;6.626;2023-07-31T01:56:29;97027.47;;;23.62;40.46
60228;BME280;46091;46.512;6.626;2023-07-31T01:58:32;97028.00;;;23.59;40.77
60228;BME280;46091;46.512;6.626;2023-07-31T02:00:54;97027.22;;;23.59;40.87
60228;BME280;46091;46.512;6.626;2023-07-31T02:02:59;97026.41;;;23.58;40.22
60228;BME280;46091;46.512;6.626;2023-07-31T02:05:02;97026.66;;;23.57;40.45
60228;BME280;46091;46.512;6.626;2023-07-31T02:07:05;97018.56;;;23.57;40.79
60228;BME280;46091;46.512;6.626;2023-07-31T02:09:08;97023.13;;;23.56;40.45
60228;BME280;46091;46.512;6.626;2023-07-31T02:11:10;97028.53;;;23.56;40.40
60228;BME280;46091;46.512;6.626;2023-07-31T02:13:12;97019.88;;;23.54;40.43
60228;BME280;46091;46.512;6.626;2023-07-31T02:15:15;97027.97;;;23.54;40.37
60228;BME280;46091;46.512;6.626;2023-07-31T02:17:20;97027.44;;;23.52;40.89
60228;BME280;46091;46.512;6.626;2023-07-31T02:19:23;97022.03;;;23.52;40.68
60228;BME280;46091;46.512;6.626;2023-07-31T02:21:26;97024.75;;;23.52;40.78
60228;BME280;46091;46.512;6.626;2023-07-31T02:23:27;97025.53;;;23.52;40.57
60228;BME280;46091;46.512;6.626;2023-07-31T02:25:30;97032.28;;;23.50;40.46
60228;BME280;46091;46.512;6.626;2023-07-31T02:27:33;97019.88;;;23.49;40.52
60228;BME280;46091;46.512;6.626;2023-07-31T02:29:36;97027.97;;;23.49;40.54
60228;BME280;46091;46.512;6.626;2023-07-31T02:31:39;97013.97;;;23.47;40.94
60228;BME280;46091;46.512;6.626;2023-07-31T02:33:44;97020.97;;;23.48;40.67
60228;BME280;46091;46.512;6.626;2023-07-31T02:35:47;97016.09;;;23.50;40.64
60228;BME280;46091;46.512;6.626;2023-07-31T02:37:49;97013.69;;;23.48;40.91
60228;BME280;46091;46.512;6.626;2023-07-31T02:39:52;97016.66;;;23.47;40.73
60228;BME280;46091;46.512;6.626;2023-07-31T02:41:55;97012.34;;;23.46;40.56
60228;BME280;46091;46.512;6.626;2023-07-31T02:43:58;97015.56;;;23.48;40.79
60228;BME280;46091;46.512;6.626;2023-07-31T02:46:01;97018.53;;;23.46;40.87
60228;BME280;46091;46.512;6.626;2023-07-31T02:48:04;97027.72;;;23.45;41.02
60228;BME280;46091;46.512;6.626;2023-07-31T02:50:09;97029.63;;;23.45;41.03
60228;BME280;46091;46.512;6.626;2023-07-31T02:52:12;97037.72;;;23.45;40.91
60228;BME280;46091;46.512;6.626;2023-07-31T02:54:14;97034.19;;;23.44;40.82
60228;BME280;46091;46.512;6.626;2023-07-31T02:56:17;97040.41;;;23.45;41.03
60228;BME280;46091;46.512;6.626;2023-07-31T02:58:20;97046.03;;;23.43;40.85
60228;BME280;46091;46.512;6.626;2023-07-31T03:00:23;97046.31;;;23.42;40.80
60228;BME280;46091;46.512;6.626;2023-07-31T03:02:25;97043.63;;;23.42;40.76
60228;BME280;46091;46.512;6.626;2023-07-31T03:04:28;97043.91;;;23.40;41.14
60228;BME280;46091;46.512;6.626;2023-07-31T03:06:32;97040.38;;;23.40;41.11
60228;BME280;46091;46.512;6.626;2023-07-31T03:08:35;97045.78;;;23.40;41.33
60228;BME280;46091;46.512;6.626;2023-07-31T03:10:38;97043.09;;;23.40;40.94
60228;BME280;46091;46.512;6.626;2023-07-31T03:12:41;97047.41;;;23.41;41.39
60228;BME280;46091;46.512;6.626;2023-07-31T03:14:44;97042.81;;;23.41;41.47
60228;BME280;46091;46.512;6.626;2023-07-31T03:16:48;97043.63;;;23.42;40.95
60228;BME280;46091;46.512;6.626;2023-07-31T03:18:51;97047.41;;;23.41;40.99
60228;BME280;46091;46.512;6.626;2023-07-31T03:20:54;97047.94;;;23.43;41.33
60228;BME280;46091;46.512;6.626;2023-07-31T03:22:58;97035.78;;;23.40;41.05
60228;BME280;46091;46.512;6.626;2023-07-31T03:25:01;97036.06;;;23.39;41.70
60228;BME280;46091;46.512;6.626;2023-07-31T03:27:04;97037.16;;;23.38;41.48
60228;BME280;46091;46.512;6.626;2023-07-31T03:29:07;97030.13;;;23.37;41.72
60228;BME280;46091;46.512;6.626;2023-07-31T03:31:10;97037.44;;;23.36;41.21
60228;BME280;46091;46.512;6.626;2023-07-31T03:33:12;97033.91;;;23.36;41.15
60228;BME280;46091;46.512;6.626;2023-07-31T03:35:15;97037.44;;;23.36;41.66
60228;BME280;46091;46.512;6.626;2023-07-31T03:37:18;97033.91;;;23.36;41.36
60228;BME280;46091;46.512;6.626;2023-07-31T03:39:22;97040.13;;;23.36;41.83
60228;BME280;46091;46.512;6.626;2023-07-31T03:41:25;97047.41;;;23.36;41.43
60228;BME280;46091;46.512;6.626;2023-07-31T03:43:28;97039.31;;;23.36;41.45
60228;BME280;46091;46.512;6.626;2023-07-31T03:45:31;97047.13;;;23.37;41.64
60228;BME280;46091;46.512;6.626;2023-07-31T03:47:34;97033.91;;;23.36;41.49
60228;BME280;46091;46.512;6.626;2023-07-31T03:49:37;97035.53;;;23.37;41.72
60228;BME280;46091;46.512;6.626;2023-07-31T03:51:40;97040.94;;;23.37;41.34
60228;BME280;46091;46.512;6.626;2023-07-31T03:53:44;97037.69;;;23.35;41.60
60228;BME280;46091;46.512;6.626;2023-07-31T03:55:49;97032.31;;;23.35;41.54
60228;BME280;46091;46.512;6.626;2023-07-31T03:57:52;97035.00;;;23.35;41.83
60228;BME280;46091;46.512;6.626;2023-07-31T03:59:53;97035.28;;;23.33;41.66
60228;BME280;46091;46.512;6.626;2023-07-31T04:01:56;97039.28;;;23.31;41.83
60228;BME280;46091;46.512;6.626;2023-07-31T04:03:59;97038.50;;;23.30;41.75
60228;BME280;46091;46.512;6.626;2023-07-31T04:06:02;97041.44;;;23.29;42.13
60228;BME280;46091;46.512;6.626;2023-07-31T04:08:05;97053.31;;;23.28;41.92
60228;BME280;46091;46.512;6.626;2023-07-31T04:10:09;97056.28;;;23.26;41.75
60228;BME280;46091;46.512;6.626;2023-07-31T04:12:15;97051.97;;;23.25;42.17
60228;BME280;46091;46.512;6.626;2023-07-31T04:14:18;97058.19;;;23.26;42.38
60228;BME280;46091;46.512;6.626;2023-07-31T04:16:21;97057.66;;;23.23;42.24
60228;BME280;46091;46.512;6.626;2023-07-31T04:18:25;97060.34;;;23.23;42.11
60228;BME280;46091;46.512;6.626;2023-07-31T04:20:28;97053.34;;;23.22;42.57
60228;BME280;46091;46.512;6.626;2023-07-31T04:22:30;97051.44;;;23.23;42.14
60228;BME280;46091;46.512;6.626;2023-07-31T04:24:33;97070.56;;;23.21;42.61
60228;BME280;46091;46.512;6.626;2023-07-31T04:26:36;97074.34;;;23.20;42.59
60228;BME280;46091;46.512;6.626;2023-07-31T04:28:41;97072.72;;;23.19;42.28
60228;BME280;46091;46.512;6.626;2023-07-31T04:30:44;97074.34;;;23.20;42.38
60228;BME280;46091;46.512;6.626;2023-07-31T04:32:51;97069.75;;;23.16;42.71
60228;BME280;46091;46.512;6.626;2023-07-31T04:34:54;97073.53;;;23.15;42.66
60228;BME280;46091;46.512;6.626;2023-07-31T04:36:57;97073.25;;;23.16;42.80
60228;BME280;46091;46.512;6.626;2023-07-31T04:39:00;97071.91;;;23.14;42.92
60228;BME280;46091;46.512;6.626;2023-07-31T04:41:03;97068.41;;;23.13;42.85
60228;BME280;46091;46.512;6.626;2023-07-31T04:43:07;97066.22;;;23.10;42.47
60228;BME280;46091;46.512;6.626;2023-07-31T04:45:11;97067.84;;;23.06;42.96
60228;BME280;46091;46.512;6.626;2023-07-31T04:47:14;97073.47;;;22.94;42.89
60228;BME280;46091;46.512;6.626;2023-07-31T04:49:17;97065.09;;;22.86;42.71
60228;BME280;46091;46.512;6.626;2023-07-31T04:51:21;97054.81;;;22.83;43.24
60228;BME280;46091;46.512;6.626;2023-07-31T04:53:24;97049.47;;;22.88;43.15
60228;BME280;46091;46.512;6.626;2023-07-31T04:55:27;97057.56;;;22.93;43.12
60228;BME280;46091;46.512;6.626;2023-07-31T04:57:30;97062.97;;;22.98;42.96
60228;BME280;46091;46.512;6.626;2023-07-31T04:59:33;97045.72;;;22.99;42.93
60228;BME280;46091;46.512;6.626;2023-07-31T05:01:37;97044.38;;;23.02;43.17
60228;BME280;46091;46.512;6.626;2023-07-31T05:03:40;97050.59;;;23.02;43.00
60228;BME280;46091;46.512;6.626;2023-07-31T05:05:43;97058.41;;;23.04;43.13
60228;BME280;46091;46.512;6.626;2023-07-31T05:07:46;97063.25;;;23.07;43.04
60228;BME280;46091;46.512;6.626;2023-07-31T05:09:48;97061.38;;;23.07;43.54
60228;BME280;46091;46.512;6.626;2023-07-31T05:11:51;97069.19;;;23.09;43.16
60228;BME280;46091;46.512;6.626;2023-07-31T05:13:53;97085.09;;;23.10;43.73
60228;BME280;46091;46.512;6.626;2023-07-31T05:15:56;97080.78;;;23.09;43.71
60228;BME280;46091;46.512;6.626;2023-07-31T05:18:04;97074.31;;;23.10;43.68
60228;BME280;46091;46.512;6.626;2023-07-31T05:20:08;97069.75;;;23.11;43.59
60228;BME280;46091;46.512;6.626;2023-07-31T05:22:12;97071.38;;;23.12;44.04
60228;BME280;46091;46.512;6.626;2023-07-31T05:24:15;97064.38;;;23.11;43.84
60228;BME280;46091;46.512;6.626;2023-07-31T05:26:17;97067.31;;;23.09;44.01
60228;BME280;46091;46.512;6.626;2023-07-31T05:28:21;97068.09;;;23.10;43.92
60228;BME280;46091;46.512;6.626;2023-07-31T05:30:23;97074.31;;;23.10;43.94
60228;BME280;46091;46.512;6.626;2023-07-31T05:32:26;97075.97;;;23.11;44.14
60228;BME280;46091;46.512;6.626;2023-07-31T05:34:30;97073.50;;;23.10;44.13
60228;BME280;46091;46.512;6.626;2023-07-31T05:36:33;97071.06;;;23.08;44.10
60228;BME280;46091;46.512;6.626;2023-07-31T05:38:36;97080.78;;;23.09;44.13
60228;BME280;46091;46.512;6.626;2023-07-31T05:40:43;97085.38;;;23.09;44.17
60228;BME280;46091;46.512;6.626;2023-07-31T05:42:46;97087.25;;;23.08;44.21
60228;BME280;46091;46.512;6.626;2023-07-31T05:44:49;97098.03;;;23.08;44.21
60228;BME280;46091;46.512;6.626;2023-07-31T05:46:52;97085.63;;;23.07;44.42
60228;BME280;46091;46.512;6.626;2023-07-31T05:48:55;97085.63;;;23.07;44.47
60228;BME280;46091;46.512;6.626;2023-07-31T05:50:59;97088.88;;;23.09;44.11
60228;BME280;46091;46.512;6.626;2023-07-31T05:53:02;97081.34;;;23.11;44.22
60228;BME280;46091;46.512;6.626;2023-07-31T05:55:05;97088.38;;;23.12;44.44
60228;BME280;46091;46.512;6.626;2023-07-31T05:57:09;97078.13;;;23.14;43.91
60228;BME280;46091;46.512;6.626;2023-07-31T05:59:13;97067.31;;;23.19;44.30
60228;BME280;46091;46.512;6.626;2023-07-31T06:01:16;97063.56;;;23.26;43.98
60228;BME280;46091;46.512;6.626;2023-07-31T06:03:19;97060.88;;;23.31;44.15
60228;BME280;46091;46.512;6.626;2023-07-31T06:05:22;97064.69;;;23.35;43.99
60228;BME280;46091;46.512;6.626;2023-07-31T06:07:26;97068.16;;;23.40;43.93
60228;BME280;46091;46.512;6.626;2023-07-31T06:09:29;97060.34;;;23.44;44.06
60228;BME280;46091;46.512;6.626;2023-07-31T06:11:32;97050.38;;;23.49;43.94
60228;BME280;46091;46.512;6.626;2023-07-31T06:13:35;97045.25;;;23.53;43.81
60228;BME280;46091;46.512;6.626;2023-07-31T06:15:38;97051.19;;;23.55;43.81
60228;BME280;46091;46.512;6.626;2023-07-31T06:17:41;97038.81;;;23.59;43.99
60228;BME280;46091;46.512;6.626;2023-07-31T06:19:45;97048.25;;;23.62;43.81
60228;BME280;46091;46.512;6.626;2023-07-31T06:21:47;97044.19;;;23.64;44.19
60228;BME280;46091;46.512;6.626;2023-07-31T06:23:52;97050.94;;;23.67;44.07
60228;BME280;46091;46.512;6.626;2023-07-31T06:25:55;97048.81;;;23.69;43.51
60228;BME280;46091;46.512;6.626;2023-07-31T06:27:57;97037.44;;;23.72;43.61
60228;BME280;46091;46.512;6.626;2023-07-31T06:30:00;97042.03;;;23.71;43.88
60228;BME280;46091;46.512;6.626;2023-07-31T06:32:04;97046.09;;;23.74;43.66
60228;BME280;46091;46.512;6.626;2023-07-31T06:34:06;97047.16;;;23.78;43.53
60228;BME280;46091;46.512;6.626;2023-07-31T06:36:08;97053.91;;;23.80;44.01
60228;BME280;46091;46.512;6.626;2023-07-31T06:38:11;97055.25;;;23.83;43.82
60228;BME280;46091;46.512;6.626;2023-07-31T06:40:15;97054.72;;;23.86;43.53
60228;BME280;46091;46.512;6.626;2023-07-31T06:42:18;97050.41;;;23.90;43.72
60228;BME280;46091;46.512;6.626;2023-07-31T06:44:20;97052.03;;;23.91;43.40
60228;BME280;46091;46.512;6.626;2023-07-31T06:46:23;97059.56;;;23.89;43.72
60228;BME280;46091;46.512;6.626;2023-07-31T06:48:26;97057.13;;;23.88;43.44
60228;BME280;46091;46.512;6.626;2023-07-31T06:50:28;97048.50;;;23.86;43.75
60228;BME280;46091;46.512;6.626;2023-07-31T06:52:32;97060.91;;;23.87;44.03
60228;BME280;46091;46.512;6.626;2023-07-31T06:54:34;97050.66;;;23.89;43.40
60228;BME280;46091;46.512;6.626;2023-07-31T06:56:38;97046.34;;;23.88;43.57
60228;BME280;46091;46.512;6.626;2023-07-31T06:58:42;97047.16;;;23.88;43.57
60228;BME280;46091;46.512;6.626;2023-07-31T07:00:45;97050.94;;;23.87;43.79
60228;BME280;46091;46.512;6.626;2023-07-31T07:02:48;97051.19;;;23.86;43.65
60228;BME280;46091;46.512;6.626;2023-07-31T07:04:51;97053.91;;;23.86;43.71
60228;BME280;46091;46.512;6.626;2023-07-31T07:06:54;97052.28;;;23.85;43.41
60228;BME280;46091;46.512;6.626;2023-07-31T07:08:57;97056.06;;;23.84;43.82
60228;BME280;46091;46.512;6.626;2023-07-31T07:11:00;97049.88;;;23.83;43.38
60228;BME280;46091;46.512;6.626;2023-07-31T07:13:04;97038.25;;;23.83;43.58
60228;BME280;46091;46.512;6.626;2023-07-31T07:15:08;97034.47;;;23.84;43.75
60228;BME280;46091;46.512;6.626;2023-07-31T07:17:11;97034.47;;;23.84;43.40
60228;BME280;46091;46.512;6.626;2023-07-31T07:19:32;97029.06;;;23.84;43.84
60228;BME280;46091;46.512;6.626;2023-07-31T07:21:35;97027.47;;;23.83;43.96
60228;BME280;46091;46.512;6.626;2023-07-31T07:23:38;97029.63;;;23.80;43.89
60228;BME280;46091;46.512;6.626;2023-07-31T07:25:41;97029.63;;;23.80;43.52
60228;BME280;46091;46.512;6.626;2023-07-31T07:28:01;97029.63;;;23.80;43.82
60228;BME280;46091;46.512;6.626;2023-07-31T07:30:23;97029.09;;;23.78;43.76
60228;BME280;46091;46.512;6.626;2023-07-31T07:32:26;97035.53;;;23.77;44.06
60228;BME280;46091;46.512;6.626;2023-07-31T07:34:29;97029.34;;;23.77;43.67
60228;BME280;46091;46.512;6.626;2023-07-31T07:36:31;97025.84;;;23.76;43.57
60228;BME280;46091;46.512;6.626;2023-07-31T07:38:35;97025.31;;;23.74;43.73
60228;BME280;46091;46.512;6.626;2023-07-31T07:40:39;97019.66;;;23.71;44.14
60228;BME280;46091;46.512;6.626;2023-07-31T07:42:42;97026.41;;;23.68;44.02
60228;BME280;46091;46.512;6.626;2023-07-31T07:44:44;97022.09;;;23.67;43.78
60228;BME280;46091;46.512;6.626;2023-07-31T07:46:48;97033.41;;;23.69;43.81
60228;BME280;46091;46.512;6.626;2023-07-31T07:48:50;97039.63;;;23.70;44.20
60228;BME280;46091;46.512;6.626;2023-07-31T07:50:53;97036.91;;;23.70;44.27
60228;BME280;46091;46.512;6.626;2023-07-31T07:52:56;97035.03;;;23.70;44.03
60228;BME280;46091;46.512;6.626;2023-07-31T07:54:59;97035.03;;;23.70;44.28
60228;BME280;46091;46.512;6.626;2023-07-31T07:57:03;97040.44;;;23.70;44.32
60228;BME280;46091;46.512;6.626;2023-07-31T07:59:06;97038.53;;;23.71;44.19
60228;BME280;46091;46.512;6.626;2023-07-31T08:01:08;97042.84;;;23.72;43.91
60228;BME280;46091;46.512;6.626;2023-07-31T08:03:13;97035.03;;;23.70;44.21
60228;BME280;46091;46.512;6.626;2023-07-31T08:05:16;97042.84;;;23.72;43.99
60228;BME280;46091;46.512;6.626;2023-07-31T08:07:19;97043.94;;;23.71;44.04
60228;BME280;46091;46.512;6.626;2023-07-31T08:09:22;97046.63;;;23.71;44.32
60228;BME280;46091;46.512;6.626;2023-07-31T08:11:25;97046.63;;;23.71;44.08
60228;BME280;46091;46.512;6.626;2023-07-31T08:13:28;97048.53;;;23.70;44.66
60228;BME280;46091;46.512;6.626;2023-07-31T08:15:31;97039.34;;;23.71;44.36
60228;BME280;46091;46.512;6.626;2023-07-31T08:17:34;97037.44;;;23.72;44.21
60228;BME280;46091;46.512;6.626;2023-07-31T08:19:38;97027.47;;;23.72;44.33
60228;BME280;46091;46.512;6.626;2023-07-31T08:21:41;97024.75;;;23.77;44.74
60228;BME280;46091;46.512;6.626;2023-07-31T08:23:44;97028.00;;;23.79;44.42
60228;BME280;46091;46.512;6.626;2023-07-31T08:25:47;97031.50;;;23.80;44.46
60228;BME280;46091;46.512;6.626;2023-07-31T08:27:51;97024.22;;;23.80;44.13
60228;BME280;46091;46.512;6.626;2023-07-31T08:29:54;97021.53;;;23.80;44.29
60228;BME280;46091;46.512;6.626;2023-07-31T08:31:57;97019.63;;;23.81;44.44
60228;BME280;46091;46.512;6.626;2023-07-31T08:33:59;97014.50;;;23.79;44.08
60228;BME280;46091;46.512;6.626;2023-07-31T08:36:04;97019.91;;;23.79;44.56
60228;BME280;46091;46.512;6.626;2023-07-31T08:38:07;97014.50;;;23.79;44.44
60228;BME280;46091;46.512;6.626;2023-07-31T08:40:10;97019.91;;;23.79;44.16
60228;BME280;46091;46.512;6.626;2023-07-31T08:42:15;97022.34;;;23.81;43.82
60228;BME280;46091;46.512;6.626;2023-07-31T08:44:18;97017.75;;;23.81;44.14
60228;BME280;46091;46.512;6.626;2023-07-31T08:46:22;97023.41;;;23.85;44.08
60228;BME280;46091;46.512;6.626;2023-07-31T08:48:26;97020.41;;;23.87;43.60
60228;BME280;46091;46.512;6.626;2023-07-31T08:50:30;97012.84;;;23.89;43.50
60228;BME280;46091;46.512;6.626;2023-07-31T08:52:35;97008.81;;;23.91;43.98
60228;BME280;46091;46.512;6.626;2023-07-31T08:54:37;97012.88;;;23.94;43.90
60228;BME280;46091;46.512;6.626;2023-07-31T08:56:42;97008.00;;;23.96;43.50
60228;BME280;46091;46.512;6.626;2023-07-31T08:58:46;97004.22;;;23.97;43.36
60228;BME280;46091;46.512;6.626;2023-07-31T09:00:50;97002.03;;;23.99;43.14
60228;BME280;46091;46.512;6.626;2023-07-31T09:02:59;96994.75;;;23.99;43.14
60228;BME280;46091;46.512;6.626;2023-07-31T09:05:04;96993.41;;;24.02;43.43
60228;BME280;46091;46.512;6.626;2023-07-31T09:07:08;96984.22;;;24.03;43.13
60228;BME280;46091;46.512;6.626;2023-07-31T09:09:16;96989.34;;;24.04;43.03
60228;BME280;46091;46.512;6.626;2023-07-31T09:11:21;96987.44;;;24.05;43.38
60228;BME280;46091;46.512;6.626;2023-07-31T09:13:24;96978.25;;;24.06;42.74
60228;BME280;46091;46.512;6.626;2023-07-31T09:15:27;96978.78;;;24.08;43.30
60228;BME280;46091;46.512;6.626;2023-07-31T09:17:39;96975.53;;;24.11;42.90
60228;BME280;46091;46.512;6.626;2023-07-31T09:19:43;96982.56;;;24.12;42.61
60228;BME280;46091;46.512;6.626;2023-07-31T09:21:48;96978.50;;;24.09;42.56
60228;BME280;46091;46.512;6.626;2023-07-31T09:23:51;96970.16;;;24.06;42.90
60228;BME280;46091;46.512;6.626;2023-07-31T09:25:57;96972.34;;;24.04;42.56
60228;BME280;46091;46.512;6.626;2023-07-31T09:28:03;96971.53;;;23.98;42.75
60228;BME280;46091;46.512;6.626;2023-07-31T09:30:07;96966.44;;;23.92;42.94
60228;BME280;46091;46.512;6.626;2023-07-31T09:32:16;96961.03;;;23.92;42.70
60228;BME280;46091;46.512;6.626;2023-07-31T09:34:20;96959.66;;;23.94;42.71
60228;BME280;46091;46.512;6.626;2023-07-31T09:36:23;96945.59;;;23.97;42.47
60228;BME280;46091;46.512;6.626;2023-07-31T09:38:26;96956.13;;;23.99;42.45
60228;BME280;46091;46.512;6.626;2023-07-31T09:40:30;96946.41;;;23.98;42.69
60228;BME280;46091;46.512;6.626;2023-07-31T09:42:34;96954.53;;;23.98;42.94
60228;BME280;46091;46.512;6.626;2023-07-31T09:44:38;96950.47;;;23.95;42.44
60228;BME280;46091;46.512;6.626;2023-07-31T09:46:42;96948.59;;;23.96;42.42
60228;BME280;46091;46.512;6.626;2023-07-31T09:48:45;96950.72;;;23.99;42.55
60228;BME280;46091;46.512;6.626;2023-07-31T09:50:48;96941.28;;;24.01;42.55
60228;BME280;46091;46.512;6.626;2023-07-31T09:52:52;96942.34;;;24.00;42.49
60228;BME280;46091;46.512;6.626;2023-07-31T09:54:53;96934.25;;;24.00;42.08
60228;BME280;46091;46.512;6.626;2023-07-31T09:56:59;96927.78;;;24.01;42.60
60228;BME280;46091;46.512;6.626;2023-07-31T09:59:04;96927.50;;;24.03;42.06
60228;BME280;46091;46.512;6.626;2023-07-31T10:01:07;96922.13;;;24.03;41.90
60228;BME280;46091;46.512;6.626;2023-07-31T10:03:11;96914.81;;;24.03;41.82
60228;BME280;46091;46.512;6.626;2023-07-31T10:05:15;96915.63;;;24.04;42.00
60228;BME280;46091;46.512;6.626;2023-07-31T10:07:19;96918.03;;;24.05;42.28
60228;BME280;46091;46.512;6.626;2023-07-31T10:09:24;96926.97;;;24.06;42.00
60228;BME280;46091;46.512;6.626;2023-07-31T10:11:30;96913.97;;;24.08;41.81
60228;BME280;46091;46.512;6.626;2023-07-31T10:13:36;96911.28;;;24.08;41.81
60228;BME280;46091;46.512;6.626;2023-07-31T10:15:41;96911.81;;;24.10;41.54
60228;BME280;46091;46.512;6.626;2023-07-31T10:17:47;96905.31;;;24.11;41.59
60228;BME280;46091;46.512;6.626;2023-07-31T10:19:49;96912.34;;;24.12;41.95
60228;BME280;46091;46.512;6.626;2023-07-31T10:21:52;96908.56;;;24.13;41.48
60228;BME280;46091;46.512;6.626;2023-07-31T10:23:58;96913.16;;;24.13;41.48
60228;BME280;46091;46.512;6.626;2023-07-31T10:26:02;96908.56;;;24.13;41.46
60228;BME280;46091;46.512;6.626;2023-07-31T10:28:08;96904.78;;;24.14;41.73
60228;BME280;46091;46.512;6.626;2023-07-31T10:30:14;96908.00;;;24.16;41.45
60228;BME280;46091;46.512;6.626;2023-07-31T10:32:22;96913.41;;;24.16;41.35
60228;BME280;46091;46.512;6.626;2023-07-31T10:34:27;96897.22;;;24.16;41.40
60228;BME280;46091;46.512;6.626;2023-07-31T10:36:30;96892.63;;;24.17;41.12
60228;BME280;46091;46.512;6.626;2023-07-31T10:38:32;96888.81;;;24.18;40.95
60228;BME280;46091;46.512;6.626;2023-07-31T10:40:34;96889.63;;;24.18;41.45
60228;BME280;46091;46.512;6.626;2023-07-31T10:42:44;96893.94;;;24.19;41.17
60228;BME280;46091;46.512;6.626;2023-07-31T10:44:48;96883.13;;;24.19;41.10
60228;BME280;46091;46.512;6.626;2023-07-31T10:46:55;96883.13;;;24.19;41.25
60228;BME280;46091;46.512;6.626;2023-07-31T10:49:00;96869.63;;;24.19;40.82
60228;BME280;46091;46.512;6.626;2023-07-31T10:51:07;96876.66;;;24.20;40.90
60228;BME280;46091;46.512;6.626;2023-07-31T10:53:22;96882.06;;;24.20;40.94
60228;BME280;46091;46.512;6.626;2023-07-31T10:55:28;96869.34;;;24.21;40.80